Time;durP1;ratioP1;P1;durP2;ratioP2;P2;SDS_P1;SDS_P2;PMS_P1;PMS_P2;Temp;Humidity;BMP_temperature;BMP_pressure;BME280_temperature;BME280_humidity;BME280_pressure;Samples;Min_cycle;Max_cycle;Signal;HPM_P1;HPM_P2
2021/12/11 00:00:14;;;;;;;9.25;3.53;;;-2.20;99.90;;;;;;5069960;28;20048;-89
2021/12/11 00:02:53;;;;;;;10.02;2.95;;;-2.20;99.90;;;;;;5086848;28;20116;-89
2021/12/11 00:05:19;;;;;;;8.10;3.25;;;-2.10;99.90;;;;;;5086651;28;20082;-89
2021/12/11 00:07:45;;;;;;;8.73;3.17;;;-2.20;99.90;;;;;;5086098;28;20036;-89
2021/12/11 00:10:20;;;;;;;8.40;3.47;;;-2.20;99.90;;;;;;5069299;28;20028;-89
2021/12/11 00:13:08;;;;;;;10.82;3.10;;;-2.30;99.90;;;;;;5069148;28;20036;-89
2021/12/11 00:15:40;;;;;;;7.55;2.80;;;-2.20;99.90;;;;;;5069332;28;20032;-89
2021/12/11 00:18:12;;;;;;;10.68;3.63;;;-2.10;99.90;;;;;;5069143;28;20469;-89
2021/12/11 00:20:43;;;;;;;6.82;3.45;;;-2.20;99.90;;;;;;5069276;28;20033;-89
2021/12/11 00:23:09;;;;;;;10.88;3.42;;;-2.20;99.90;;;;;;5068907;28;20028;-89
2021/12/11 00:25:44;;;;;;;10.77;3.75;;;-2.20;99.90;;;;;;5069107;28;20058;-90
2021/12/11 00:28:30;;;;;;;10.23;4.20;;;-2.20;99.90;;;;;;5068908;28;20032;-89
2021/12/11 00:30:58;;;;;;;12.32;4.03;;;-2.30;99.90;;;;;;5047684;28;20071;-89
2021/12/11 00:33:32;;;;;;;9.48;3.85;;;-2.30;99.90;;;;;;5047710;28;20037;-88
2021/12/11 00:35:58;;;;;;;12.45;3.80;;;-2.20;99.90;;;;;;5064777;28;20033;-89
2021/12/11 00:38:32;;;;;;;9.15;3.53;;;-2.30;99.90;;;;;;5047871;28;20400;-89
2021/12/11 00:40:59;;;;;;;9.15;3.90;;;-2.40;99.90;;;;;;5047949;28;20067;-89
2021/12/11 00:43:29;;;;;;;8.45;4.07;;;-2.50;99.90;;;;;;5031137;28;20037;-89
2021/12/11 00:45:57;;;;;;;14.20;3.67;;;-2.50;99.90;;;;;;5047831;28;20120;-89
2021/12/11 00:48:28;;;;;;;12.25;3.92;;;-2.50;99.90;;;;;;5047776;28;20040;-89
2021/12/11 00:51:18;;;;;;;11.98;4.45;;;-2.40;99.90;;;;;;5031186;28;20037;-89
2021/12/11 00:53:53;;;;;;;9.20;3.55;;;-2.50;99.90;;;;;;5047526;28;20033;-89
2021/12/11 00:56:21;;;;;;;12.55;3.60;;;-2.50;99.90;;;;;;5047487;28;20071;-89
2021/12/11 00:58:50;;;;;;;12.18;3.50;;;-2.50;99.90;;;;;;5047295;28;20040;-89
2021/12/11 01:01:29;;;;;;;10.57;3.33;;;-2.40;99.90;;;;;;5047251;28;20130;-89
2021/12/11 01:04:02;;;;;;;11.65;3.92;;;-2.40;99.90;;;;;;5030926;28;20064;-89
2021/12/11 01:06:35;;;;;;;9.15;3.88;;;-2.40;99.90;;;;;;5047819;28;20061;-88
2021/12/11 01:09:14;;;;;;;12.02;3.70;;;-2.50;99.90;;;;;;5081714;28;20040;-88
2021/12/11 01:11:57;;;;;;;9.65;3.88;;;-2.70;99.90;;;;;;5068281;28;20040;-89
2021/12/11 01:14:37;;;;;;;8.75;3.63;;;-2.60;99.90;;;;;;5068382;28;20036;-89
2021/12/11 01:17:14;;;;;;;9.13;4.13;;;-2.50;99.90;;;;;;5068312;28;20032;-89
2021/12/11 01:19:44;;;;;;;11.13;3.90;;;-2.60;99.90;;;;;;5068253;28;20032;-89
2021/12/11 01:22:50;;;;;;;11.63;4.45;;;-2.50;99.90;;;;;;5068241;28;20037;-89
2021/12/11 01:25:23;;;;;;;11.25;4.57;;;-2.60;99.90;;;;;;5080924;28;20040;-89
2021/12/11 01:27:52;;;;;;;11.95;4.25;;;-2.50;99.90;;;;;;5068353;28;20036;-89
2021/12/11 01:30:31;;;;;;;9.30;3.60;;;-2.60;99.90;;;;;;5067733;28;20037;-90
2021/12/11 01:32:58;;;;;;;13.32;3.88;;;-2.70;99.90;;;;;;5067964;28;20036;-90
2021/12/11 01:35:25;;;;;;;10.30;3.90;;;-2.70;99.90;;;;;;5068040;28;20051;-89
2021/12/11 01:38:00;;;;;;;9.02;3.83;;;-2.50;99.90;;;;;;5062732;28;20021;-89
2021/12/11 01:40:30;;;;;;;9.82;3.88;;;-2.60;99.90;;;;;;5048064;28;20128;-90
2021/12/11 01:42:56;;;;;;;9.55;3.22;;;-2.60;99.90;;;;;;5047830;28;20029;-90
2021/12/11 01:45:22;;;;;;;8.70;3.90;;;-2.60;99.90;;;;;;5064632;28;20037;-90
2021/12/11 01:47:48;;;;;;;9.43;3.83;;;-2.50;99.90;;;;;;5048051;28;20055;-90
2021/12/11 01:50:24;;;;;;;10.98;4.28;;;-2.50;99.90;;;;;;5048090;28;20167;-90
2021/12/11 01:52:58;;;;;;;10.30;4.18;;;-2.70;99.90;;;;;;5047852;28;20052;-90
2021/12/11 01:55:47;;;;;;;10.23;4.00;;;-2.60;99.90;;;;;;5048015;28;20025;-89
2021/12/11 01:58:22;;;;;;;10.82;5.18;;;-2.50;99.90;;;;;;5047856;28;20128;-90
2021/12/11 02:00:54;;;;;;;7.90;3.95;;;-2.60;99.90;;;;;;5047559;28;20029;-90
2021/12/11 02:03:27;;;;;;;8.80;4.05;;;-2.60;99.90;;;;;;5064477;28;20037;-89
2021/12/11 02:05:53;;;;;;;10.75;4.43;;;-2.40;99.90;;;;;;5047925;28;20029;-89
2021/12/11 02:08:25;;;;;;;7.55;3.10;;;-2.40;99.90;;;;;;5047914;28;20041;-90
2021/12/11 02:10:55;;;;;;;7.20;3.25;;;-2.50;99.90;;;;;;5047648;28;20029;-90
2021/12/11 02:13:38;;;;;;;9.30;4.10;;;-2.40;99.90;;;;;;5049964;28;20033;-89
2021/12/11 02:16:06;;;;;;;9.65;3.75;;;-2.30;99.90;;;;;;5051535;28;20033;-89
2021/12/11 02:18:36;;;;;;;11.07;3.90;;;-2.30;99.90;;;;;;5051693;28;20037;-90
2021/12/11 02:21:10;;;;;;;8.70;4.22;;;-2.30;99.90;;;;;;5051462;28;20032;-89
2021/12/11 02:23:35;;;;;;;9.23;3.67;;;-2.30;99.90;;;;;;5051504;28;20447;-89
2021/12/11 02:26:05;;;;;;;8.10;3.50;;;-2.20;99.90;;;;;;5051215;28;20032;-89
2021/12/11 02:28:39;;;;;;;10.80;3.55;;;-2.30;99.90;;;;;;5051136;28;20044;-89
2021/12/11 02:31:30;;;;;;;10.13;4.05;;;-2.40;99.90;;;;;;5051016;28;20112;-89
2021/12/11 02:34:08;;;;;;;8.18;3.40;;;-2.40;99.90;;;;;;5051379;28;20036;-88
2021/12/11 02:36:43;;;;;;;10.05;3.60;;;-2.10;99.90;;;;;;5051237;28;20036;-88
2021/12/11 02:39:12;;;;;;;8.90;3.78;;;-2.10;99.90;;;;;;5067348;28;20036;-88
2021/12/11 02:42:10;;;;;;;6.78;3.47;;;-2.10;99.90;;;;;;5071109;28;20037;-89
2021/12/11 02:44:47;;;;;;;9.00;4.20;;;-2.20;99.90;;;;;;5066051;28;20041;-89
2021/12/11 02:47:30;;;;;;;9.98;3.90;;;-2.30;99.90;;;;;;5087786;28;20506;-89
2021/12/11 02:50:27;;;;;;;8.02;3.65;;;-2.50;99.90;;;;;;5071312;28;20032;-89
2021/12/11 02:53:14;;;;;;;8.32;3.58;;;-2.50;99.90;;;;;;5070500;28;20503;-89
2021/12/11 02:55:43;;;;;;;9.40;3.75;;;-2.50;99.90;;;;;;5087608;28;20548;-89
2021/12/11 02:58:16;;;;;;;6.22;3.08;;;-2.60;99.90;;;;;;5070791;28;20060;-89
2021/12/11 03:01:05;;;;;;;8.30;3.78;;;-2.50;99.90;;;;;;5070748;28;20025;-89
2021/12/11 03:03:39;;;;;;;9.05;3.40;;;-2.50;99.90;;;;;;5070416;28;20040;-89
2021/12/11 03:06:17;;;;;;;12.23;4.18;;;-2.60;99.90;;;;;;5071008;28;20111;-89
2021/12/11 03:08:43;;;;;;;8.40;3.30;;;-2.50;99.90;;;;;;5070922;28;20400;-89
2021/12/11 03:11:13;;;;;;;8.48;3.65;;;-2.40;99.90;;;;;;5070582;28;20048;-89
2021/12/11 03:13:40;;;;;;;11.85;4.30;;;-2.30;99.90;;;;;;5070582;28;20172;-89
2021/12/11 03:16:07;;;;;;;6.25;3.22;;;-2.40;99.90;;;;;;5070486;28;20047;-89
2021/12/11 03:18:33;;;;;;;8.07;4.07;;;-2.50;99.90;;;;;;5070643;28;20025;-89
2021/12/11 03:20:59;;;;;;;7.43;3.45;;;-2.50;99.90;;;;;;5070427;28;20100;-89
2021/12/11 03:23:25;;;;;;;10.50;4.32;;;-2.50;99.90;;;;;;5070547;28;20032;-90
2021/12/11 03:25:51;;;;;;;7.78;3.25;;;-2.60;99.90;;;;;;5070001;28;20024;-90
2021/12/11 03:28:37;;;;;;;8.45;3.92;;;-2.60;99.90;;;;;;5070240;28;20039;-90
2021/12/11 03:31:05;;;;;;;11.40;3.85;;;-2.60;99.90;;;;;;5065105;28;20040;-89
2021/12/11 03:33:43;;;;;;;8.95;3.53;;;-2.60;99.90;;;;;;5049123;28;20064;-90
2021/12/11 03:36:15;;;;;;;9.57;3.83;;;-2.60;99.90;;;;;;5048876;28;20079;-89
2021/12/11 03:38:44;;;;;;;11.07;4.60;;;-2.60;99.90;;;;;;5065626;28;20033;-90
2021/12/11 03:41:10;;;;;;;9.20;3.88;;;-2.60;99.90;;;;;;5048714;28;20036;-89
2021/12/11 03:43:36;;;;;;;12.07;3.92;;;-2.80;99.90;;;;;;5048993;28;20036;-89
2021/12/11 03:46:06;;;;;;;10.90;4.15;;;-2.80;99.90;;;;;;5048740;28;20056;-89
2021/12/11 03:48:44;;;;;;;10.00;3.95;;;-2.80;99.90;;;;;;5048741;28;20061;-89
2021/12/11 03:51:14;;;;;;;9.45;4.38;;;-2.80;99.90;;;;;;5048702;28;20041;-88
2021/12/11 03:53:40;;;;;;;10.60;4.05;;;-2.80;99.90;;;;;;5031813;28;20206;-88
2021/12/11 03:56:10;;;;;;;9.38;3.28;;;-2.80;99.90;;;;;;5048719;28;20037;-88
2021/12/11 03:58:38;;;;;;;10.68;4.00;;;-2.80;99.90;;;;;;5048585;28;20032;-88
2021/12/11 04:01:13;;;;;;;11.25;4.40;;;-2.90;99.90;;;;;;5031672;28;20053;-88
2021/12/11 04:03:42;;;;;;;9.00;3.60;;;-3.00;99.90;;;;;;5048341;28;20043;-87
2021/12/11 04:06:10;;;;;;;9.50;3.58;;;-3.00;99.90;;;;;;5048297;28;20036;-86
2021/12/11 04:08:41;;;;;;;10.30;3.70;;;-3.00;99.90;;;;;;5063224;28;20045;-86
2021/12/11 04:11:12;;;;;;;10.05;3.92;;;-3.00;99.90;;;;;;5069296;28;20044;-86
2021/12/11 04:13:38;;;;;;;13.00;4.28;;;-2.80;99.90;;;;;;5069184;28;20028;-86
2021/12/11 04:16:05;;;;;;;10.00;3.75;;;-2.90;99.90;;;;;;5069102;28;20036;-86
2021/12/11 04:18:31;;;;;;;8.85;4.18;;;-3.00;99.90;;;;;;5069150;28;20109;-86
2021/12/11 04:20:57;;;;;;;10.90;4.18;;;-2.80;99.90;;;;;;5069035;28;20099;-86
2021/12/11 04:23:23;;;;;;;10.05;4.50;;;-2.80;99.90;;;;;;5068928;28;20050;-86
2021/12/11 04:25:50;;;;;;;9.18;4.38;;;-2.90;99.90;;;;;;5069191;28;20035;-85
2021/12/11 04:28:37;;;;;;;11.48;5.45;;;-2.80;99.90;;;;;;5068738;28;20056;-85
2021/12/11 04:31:11;;;;;;;12.90;4.75;;;-2.80;99.90;;;;;;5027265;22;20084;-85
2021/12/11 04:33:42;;;;;;;12.82;4.85;;;-2.80;99.90;;;;;;5029309;28;20029;-86
2021/12/11 04:36:13;;;;;;;11.25;3.63;;;-2.70;99.90;;;;;;5028701;28;20037;-85
2021/12/11 04:38:40;;;;;;;15.05;4.43;;;-2.70;99.90;;;;;;5026043;28;20132;-84
2021/12/11 04:41:08;;;;;;;6.70;2.80;;;-2.80;99.90;;;;;;5009629;28;20053;-85
2021/12/11 04:43:35;;;;;;;9.68;4.32;;;-2.80;99.90;;;;;;5025833;28;20038;-85
2021/12/11 04:46:06;;;;;;;8.82;3.47;;;-2.80;99.90;;;;;;5026169;28;20037;-86
2021/12/11 04:48:51;;;;;;;9.00;3.50;;;-3.00;99.90;;;;;;5009557;28;20073;-86
2021/12/11 04:51:32;;;;;;;9.23;3.70;;;-2.90;99.90;;;;;;5009429;28;20098;-85
2021/12/11 04:59:56;;;;;;;6.68;3.33;;;-2.70;99.90;;;;;;5003663;28;20053;-86
2021/12/11 05:10:20;;;;;;;7.65;3.58;;;-2.80;99.90;;;;;;5025496;28;20034;-85
2021/12/11 05:12:53;;;;;;;8.85;3.75;;;-2.90;99.90;;;;;;5025014;28;20125;-84
2021/12/11 05:15:28;;;;;;;10.50;4.03;;;-2.70;99.90;;;;;;5008717;28;20045;-85
2021/12/11 05:17:55;;;;;;;13.00;4.07;;;-2.90;99.90;;;;;;5008398;28;20041;-84
2021/12/11 05:20:24;;;;;;;10.75;3.22;;;-2.90;99.90;;;;;;5008766;28;20041;-84
2021/12/11 05:22:50;;;;;;;10.07;3.60;;;-2.90;99.90;;;;;;5024778;28;20030;-85
2021/12/11 05:25:16;;;;;;;8.88;4.18;;;-2.60;99.90;;;;;;5024958;28;20064;-84
2021/12/11 05:27:44;;;;;;;9.65;4.35;;;-2.50;99.90;;;;;;5008364;28;20036;-85
2021/12/11 05:30:20;;;;;;;10.18;4.35;;;-2.50;99.90;;;;;;5008316;28;20045;-84
2021/12/11 05:32:46;;;;;;;12.27;3.58;;;-2.30;99.90;;;;;;5007921;28;20046;-84
2021/12/11 05:35:13;;;;;;;11.15;4.38;;;-2.40;99.90;;;;;;5024759;28;20052;-84
2021/12/11 05:37:39;;;;;;;10.30;3.88;;;-2.50;99.90;;;;;;5011841;28;20072;-85
2021/12/11 05:40:09;;;;;;;9.15;3.80;;;-2.40;99.90;;;;;;5028179;28;20044;-84
2021/12/11 05:42:34;;;;;;;10.57;3.95;;;-2.40;99.90;;;;;;5044075;28;20034;-84
2021/12/11 05:45:01;;;;;;;12.80;3.92;;;-2.30;99.90;;;;;;5027910;28;20105;-84
2021/12/11 05:47:27;;;;;;;8.75;4.07;;;-2.30;99.90;;;;;;5028999;28;20033;-84
2021/12/11 05:49:53;;;;;;;12.60;4.80;;;-2.20;99.90;;;;;;5032012;28;20083;-84
2021/12/11 05:52:18;;;;;;;9.30;3.78;;;-2.10;99.90;;;;;;5031622;28;20045;-84
2021/12/11 05:54:46;;;;;;;11.73;4.38;;;-2.20;99.90;;;;;;5031939;28;20056;-84
2021/12/11 05:57:16;;;;;;;10.50;4.15;;;-2.30;99.90;;;;;;5048366;28;20040;-84
2021/12/11 05:59:44;;;;;;;11.23;4.03;;;-2.30;99.90;;;;;;5031759;28;20029;-84
2021/12/11 06:02:26;;;;;;;10.75;4.13;;;-2.30;99.90;;;;;;5031782;28;20037;-84
2021/12/11 06:04:55;;;;;;;9.50;3.85;;;-2.30;99.90;;;;;;5031811;28;20033;-85
2021/12/11 06:07:25;;;;;;;12.95;4.57;;;-2.20;99.90;;;;;;5031784;28;20029;-85
2021/12/11 06:09:57;;;;;;;9.20;4.38;;;-2.00;99.90;;;;;;5031873;28;20060;-84
2021/12/11 06:12:24;;;;;;;11.93;4.55;;;-1.90;99.90;;;;;;5031343;28;20049;-85
2021/12/11 06:14:50;;;;;;;11.02;4.40;;;-1.80;99.90;;;;;;5031659;28;20033;-84
2021/12/11 06:17:19;;;;;;;10.65;4.70;;;-1.70;99.90;;;;;;5031613;28;20033;-84
2021/12/11 06:19:51;;;;;;;12.98;4.47;;;-1.70;99.90;;;;;;5031394;28;20040;-84
2021/12/11 06:22:19;;;;;;;13.20;5.90;;;-1.60;99.90;;;;;;5031060;28;20129;-84
2021/12/11 06:24:45;;;;;;;10.27;5.13;;;-1.50;99.90;;;;;;5031168;28;20097;-84
2021/12/11 06:27:11;;;;;;;12.00;5.25;;;-1.50;99.90;;;;;;5047927;28;20119;-84
2021/12/11 06:29:37;;;;;;;11.65;5.10;;;-1.40;99.90;;;;;;5031149;28;20042;-84
2021/12/11 06:32:03;;;;;;;12.02;5.75;;;-1.40;99.90;;;;;;5047990;28;20136;-84
2021/12/11 06:34:29;;;;;;;15.63;5.00;;;-1.40;99.90;;;;;;5032522;28;20128;-84
2021/12/11 06:36:55;;;;;;;12.07;5.38;;;-1.30;99.90;;;;;;5031243;28;20057;-84
2021/12/11 06:39:23;;;;;;;10.88;5.50;;;-1.20;99.90;;;;;;5027917;28;20026;-84
2021/12/11 06:41:52;;;;;;;10.50;5.50;;;-1.10;99.90;;;;;;5044263;28;20034;-84
2021/12/11 06:44:19;;;;;;;11.13;5.63;;;-1.00;99.90;;;;;;5044303;28;20037;-85
2021/12/11 06:46:45;;;;;;;12.02;5.35;;;-0.90;99.90;;;;;;5044331;28;20042;-85
2021/12/11 06:49:11;;;;;;;10.00;5.15;;;-0.80;99.90;;;;;;5044015;28;20030;-84
2021/12/11 06:51:37;;;;;;;13.32;4.85;;;-0.70;99.90;;;;;;5043975;28;20038;-85
2021/12/11 06:54:07;;;;;;;12.25;5.43;;;-0.70;99.90;;;;;;5044063;28;20121;-85
2021/12/11 06:56:35;;;;;;;10.73;4.78;;;-0.70;99.90;;;;;;5027963;28;20030;-85
2021/12/11 06:59:01;;;;;;;13.32;4.90;;;-0.60;99.90;;;;;;5043443;28;20093;-85
2021/12/11 07:01:27;;;;;;;11.20;5.07;;;-0.50;99.90;;;;;;5044154;28;20033;-86
2021/12/11 07:03:53;;;;;;;12.35;5.05;;;-0.50;99.90;;;;;;5043972;28;20061;-86
2021/12/11 07:06:20;;;;;;;11.48;5.38;;;-0.40;99.90;;;;;;5027405;28;20276;-86
2021/12/11 07:08:47;;;;;;;12.13;5.75;;;-0.30;99.90;;;;;;5043906;28;20030;-86
2021/12/11 07:11:13;;;;;;;9.43;4.72;;;-0.20;99.90;;;;;;5043841;28;20046;-86
2021/12/11 07:13:43;;;;;;;11.52;4.82;;;-0.30;99.90;;;;;;5043850;28;20094;-86
2021/12/11 07:16:10;;;;;;;13.73;5.38;;;-0.20;99.90;;;;;;5044148;28;20088;-85
2021/12/11 07:18:37;;;;;;;12.57;5.18;;;-0.30;99.90;;;;;;5043915;28;20093;-85
2021/12/11 07:21:04;;;;;;;15.93;5.78;;;-0.20;99.90;;;;;;5043676;28;20224;-85
2021/12/11 07:23:31;;;;;;;12.63;5.82;;;-0.20;99.90;;;;;;5043819;28;20040;-85
2021/12/11 07:26:13;;;;;;;10.43;5.38;;;-0.20;99.90;;;;;;5027004;28;20466;-85
2021/12/11 07:28:40;;;;;;;16.17;5.78;;;0.00;99.90;;;;;;5043396;28;20101;-85
2021/12/11 07:31:06;;;;;;;12.90;5.05;;;0.00;99.90;;;;;;5043086;28;20076;-86
2021/12/11 07:33:32;;;;;;;14.82;5.43;;;0.00;99.90;;;;;;5043282;28;20501;-85
2021/12/11 07:35:58;;;;;;;15.10;6.30;;;0.10;99.90;;;;;;5043100;28;20038;-85
2021/12/11 07:38:24;;;;;;;12.82;5.43;;;0.00;99.90;;;;;;5040278;28;20030;-85
2021/12/11 07:40:54;;;;;;;15.38;6.70;;;0.00;99.90;;;;;;5046538;28;20096;-85
2021/12/11 07:43:20;;;;;;;;;;;0.00;99.90;;;;;;5046716;28;20030;-85
2021/12/11 07:45:46;;;;;;;11.23;4.65;;;0.10;99.90;;;;;;5063027;28;19909;-85
2021/12/11 07:48:12;;;;;;;10.18;4.45;;;0.00;99.90;;;;;;5046307;28;20036;-84
2021/12/11 07:50:39;;;;;;;14.18;5.30;;;0.10;99.90;;;;;;5029528;28;20030;-84
2021/12/11 07:53:05;;;;;;;12.52;5.25;;;0.10;99.90;;;;;;5045969;28;20037;-84
2021/12/11 07:55:32;;;;;;;13.23;5.25;;;0.10;99.90;;;;;;5045969;28;20034;-85
2021/12/11 07:57:59;;;;;;;11.98;5.47;;;0.10;99.90;;;;;;5029776;28;20038;-84
2021/12/11 08:00:26;;;;;;;13.13;6.32;;;0.20;99.90;;;;;;5045934;28;20036;-84
2021/12/11 08:02:52;;;;;;;13.55;5.18;;;0.10;99.90;;;;;;5029404;28;20034;-84
2021/12/11 08:05:18;;;;;;;14.95;6.15;;;0.10;99.90;;;;;;5046052;28;20101;-84
2021/12/11 08:07:44;;;;;;;16.85;6.45;;;0.20;99.90;;;;;;5046944;28;20047;-84
2021/12/11 08:10:14;;;;;;;13.75;5.22;;;0.30;99.90;;;;;;5045213;28;20030;-84
2021/12/11 08:12:41;;;;;;;13.20;6.18;;;0.30;99.90;;;;;;5044383;28;20041;-84
2021/12/11 08:15:08;;;;;;;19.13;6.75;;;0.30;99.90;;;;;;5044820;28;20095;-84
2021/12/11 08:17:34;;;;;;;18.83;7.00;;;0.40;99.90;;;;;;5045185;28;20038;-84
2021/12/11 08:20:00;;;;;;;19.17;7.80;;;0.40;99.90;;;;;;5028423;28;20040;-84
2021/12/11 08:22:25;;;;;;;17.95;7.82;;;0.50;99.90;;;;;;5044629;28;20029;-84
2021/12/11 08:24:51;;;;;;;17.02;7.72;;;0.50;99.90;;;;;;5044681;28;20059;-84
2021/12/11 08:27:20;;;;;;;19.05;7.97;;;0.40;99.90;;;;;;5044899;28;20290;-84
2021/12/11 08:29:49;;;;;;;20.13;8.20;;;0.50;99.90;;;;;;5027822;28;20063;-84
2021/12/11 08:32:17;;;;;;;21.00;9.77;;;0.70;99.90;;;;;;5044536;28;20038;-84
2021/12/11 08:34:43;;;;;;;18.90;8.32;;;0.70;99.90;;;;;;5044712;28;20034;-85
2021/12/11 08:37:12;;;;;;;17.88;7.45;;;0.70;99.90;;;;;;5044649;28;20041;-84
2021/12/11 08:39:39;;;;;;;19.00;8.70;;;0.70;99.90;;;;;;5008398;28;20040;-84
2021/12/11 08:42:08;;;;;;;17.35;8.20;;;0.70;99.90;;;;;;5024872;28;20042;-84
2021/12/11 08:44:37;;;;;;;20.75;8.75;;;0.70;99.90;;;;;;5024873;28;20029;-84
2021/12/11 08:47:07;;;;;;;19.45;7.88;;;0.80;99.90;;;;;;5008380;28;20049;-85
2021/12/11 08:49:36;;;;;;;22.80;9.60;;;0.80;99.90;;;;;;5008349;28;20048;-84
2021/12/11 08:52:34;;;;;;;19.58;8.35;;;1.00;99.90;;;;;;5024385;28;20087;-85
2021/12/11 08:55:00;;;;;;;20.30;8.95;;;1.00;99.90;;;;;;5011596;28;20034;-85
2021/12/11 08:57:31;;;;;;;18.40;8.52;;;1.00;99.90;;;;;;5024514;28;20072;-85
2021/12/11 08:59:59;;;;;;;;;;;1.10;99.90;;;;;;5024691;28;20088;-85
2021/12/11 09:02:40;;;;;;;19.50;8.45;;;1.10;99.90;;;;;;5024402;28;20445;-85
2021/12/11 09:05:13;;;;;;;17.25;7.28;;;1.20;99.90;;;;;;5024578;28;20030;-85
2021/12/11 09:07:45;;;;;;;16.45;7.35;;;1.20;99.90;;;;;;5024399;28;20054;-85
2021/12/11 09:10:18;;;;;;;18.77;8.20;;;1.30;99.90;;;;;;5024593;28;20409;-85
2021/12/11 09:12:59;;;;;;;17.90;7.85;;;1.40;99.90;;;;;;5024109;28;20038;-85
2021/12/11 09:15:33;;;;;;;21.17;8.73;;;1.50;99.90;;;;;;5007912;28;20030;-85
2021/12/11 09:18:03;;;;;;;21.88;9.05;;;1.50;99.90;;;;;;5024118;28;20101;-84
2021/12/11 09:20:37;;;;;;;20.88;9.05;;;1.50;99.90;;;;;;5024034;28;20030;-84
2021/12/11 09:23:16;;;;;;;22.17;10.02;;;1.60;99.90;;;;;;5023836;28;20419;-85
2021/12/11 09:25:48;;;;;;;20.92;9.73;;;1.50;99.90;;;;;;5024204;28;20033;-85
2021/12/11 09:28:39;;;;;;;16.98;7.68;;;1.60;99.90;;;;;;5023996;28;20397;-84
2021/12/11 09:31:13;;;;;;;20.23;9.27;;;1.60;99.90;;;;;;5022656;28;20053;-84
2021/12/11 09:33:48;;;;;;;19.02;7.90;;;1.70;99.90;;;;;;5023273;28;20050;-85
2021/12/11 09:36:19;;;;;;;16.42;8.60;;;1.70;99.90;;;;;;5023038;28;20109;-84
2021/12/11 09:38:54;;;;;;;24.15;9.18;;;1.70;99.90;;;;;;5010479;28;20034;-84
2021/12/11 09:41:26;;;;;;;20.40;8.25;;;1.80;99.90;;;;;;4987160;28;20034;-84
2021/12/11 09:43:55;;;;;;;16.83;8.68;;;1.80;99.90;;;;;;4971004;28;20054;-84
2021/12/11 09:46:28;;;;;;;19.70;8.90;;;1.80;99.90;;;;;;4986932;28;20034;-84
2021/12/11 09:48:57;;;;;;;20.83;8.70;;;1.90;99.90;;;;;;4970946;28;20038;-84
2021/12/11 09:51:30;;;;;;;18.35;9.48;;;1.90;99.90;;;;;;4986767;28;20038;-84
2021/12/11 09:53:59;;;;;;;22.30;9.85;;;1.90;99.90;;;;;;4986979;28;20124;-84
2021/12/11 09:56:32;;;;;;;25.05;10.25;;;1.90;99.90;;;;;;4986924;28;20030;-84
2021/12/11 09:59:00;;;;;;;20.27;9.38;;;1.80;99.90;;;;;;5002992;28;20106;-84
2021/12/11 10:01:32;;;;;;;23.73;10.20;;;1.80;99.90;;;;;;5002784;28;20181;-84
2021/12/11 10:04:10;;;;;;;20.25;8.80;;;1.90;99.90;;;;;;4970851;28;20058;-84
2021/12/11 10:06:43;;;;;;;28.20;12.45;;;2.00;99.90;;;;;;4986798;28;20030;-84
2021/12/11 10:09:22;;;;;;;27.38;11.18;;;2.10;99.90;;;;;;5023747;28;20417;-84
2021/12/11 10:12:11;;;;;;;22.25;10.52;;;2.20;99.90;;;;;;5026702;28;20037;-84
2021/12/11 10:14:45;;;;;;;19.55;9.18;;;2.20;99.90;;;;;;5015156;28;20071;-81
2021/12/11 10:17:17;;;;;;;23.00;10.73;;;2.20;99.90;;;;;;5043362;28;20097;-84
2021/12/11 10:19:44;;;;;;;22.00;9.98;;;2.20;99.90;;;;;;5043629;28;20033;-84
2021/12/11 10:22:12;;;;;;;25.38;11.68;;;2.10;99.90;;;;;;5026782;28;20033;-84
2021/12/11 10:24:39;;;;;;;27.65;12.43;;;2.10;99.90;;;;;;5026828;28;20073;-84
2021/12/11 10:27:07;;;;;;;24.55;11.55;;;2.10;99.90;;;;;;5026851;28;20044;-84
2021/12/11 10:29:33;;;;;;;26.20;12.65;;;2.10;99.90;;;;;;5026655;28;20109;-85
2021/12/11 10:32:02;;;;;;;26.17;11.80;;;2.10;99.90;;;;;;5026369;28;20072;-84
2021/12/11 10:34:31;;;;;;;21.67;10.50;;;2.20;99.90;;;;;;5027617;28;20029;-84
2021/12/11 10:37:04;;;;;;;24.15;12.88;;;2.10;99.90;;;;;;5030294;28;20043;-85
2021/12/11 10:39:30;;;;;;;25.40;11.50;;;2.20;99.90;;;;;;5011704;28;20402;-84
2021/12/11 10:41:58;;;;;;;28.08;13.52;;;2.20;99.90;;;;;;5026854;28;20033;-84
2021/12/11 10:44:32;;;;;;;25.55;12.32;;;2.10;99.90;;;;;;5043509;28;20143;-83
2021/12/11 10:47:09;;;;;;;27.55;12.57;;;2.10;99.90;;;;;;5026912;28;20030;-84
2021/12/11 10:49:38;;;;;;;22.27;10.85;;;2.10;99.90;;;;;;5026851;28;20038;-84
2021/12/11 10:52:17;;;;;;;23.08;10.02;;;2.10;99.90;;;;;;5026555;28;20426;-84
2021/12/11 10:54:46;;;;;;;20.23;10.05;;;2.10;99.90;;;;;;5043084;28;20083;-84
2021/12/11 10:57:12;;;;;;;21.23;10.15;;;2.20;99.90;;;;;;5026705;28;20065;-85
2021/12/11 10:59:42;;;;;;;16.55;8.95;;;2.30;99.90;;;;;;5026649;28;20026;-85
2021/12/11 11:02:16;;;;;;;29.00;13.52;;;2.30;99.90;;;;;;5026425;28;20061;-84
2021/12/11 11:04:48;;;;;;;23.23;11.60;;;2.20;99.90;;;;;;5026838;28;20478;-84
2021/12/11 11:07:15;;;;;;;21.63;11.20;;;2.30;99.90;;;;;;5026411;28;20040;-84
2021/12/11 11:09:41;;;;;;;24.42;11.38;;;2.40;99.90;;;;;;5026416;28;20391;-84
2021/12/11 11:12:16;;;;;;;23.52;10.98;;;2.40;99.90;;;;;;5026087;28;20053;-85
2021/12/11 11:14:42;;;;;;;24.08;10.75;;;2.50;99.90;;;;;;5026513;28;20116;-85
2021/12/11 11:17:13;;;;;;;22.27;10.55;;;2.40;99.90;;;;;;5043095;28;20034;-85
2021/12/11 11:19:40;;;;;;;28.67;12.48;;;2.40;99.90;;;;;;5042864;28;20030;-85
2021/12/11 11:22:16;;;;;;;25.70;12.60;;;2.30;99.90;;;;;;5027403;28;20038;-84
2021/12/11 11:24:48;;;;;;;33.67;14.60;;;2.40;99.90;;;;;;5026215;28;20029;-85
2021/12/11 11:27:15;;;;;;;32.17;14.57;;;2.40;99.90;;;;;;5026097;28;20029;-84
2021/12/11 11:29:43;;;;;;;30.35;13.55;;;2.40;99.90;;;;;;5025956;28;20054;-85
2021/12/11 11:32:16;;;;;;;31.27;13.52;;;2.40;99.90;;;;;;5025829;28;20064;-84
2021/12/11 11:34:42;;;;;;;29.33;13.40;;;2.50;99.90;;;;;;5026104;28;20097;-83
2021/12/11 11:37:14;;;;;;;35.63;15.05;;;2.50;99.90;;;;;;5027343;28;20072;-84
2021/12/11 11:39:40;;;;;;;40.08;17.95;;;2.50;99.90;;;;;;5009680;28;20041;-85
2021/12/11 11:42:16;;;;;;;32.17;14.25;;;2.50;99.90;;;;;;5027053;28;20076;-84
2021/12/11 11:44:45;;;;;;;32.70;15.68;;;2.60;99.90;;;;;;5009437;28;20166;-84
2021/12/11 11:47:13;;;;;;;31.58;15.38;;;2.60;99.90;;;;;;5009570;28;20096;-85
2021/12/11 11:49:39;;;;;;;31.92;13.32;;;2.80;99.90;;;;;;5009500;28;20482;-85
2021/12/11 11:52:09;;;;;;;29.92;13.93;;;2.80;99.90;;;;;;5009387;28;20037;-84
2021/12/11 11:54:38;;;;;;;31.30;13.25;;;2.80;99.90;;;;;;5025595;28;20034;-85
2021/12/11 11:57:09;;;;;;;29.55;12.70;;;2.70;99.90;;;;;;5009220;28;20030;-85
2021/12/11 11:59:35;;;;;;;33.22;15.48;;;2.80;99.90;;;;;;5009173;28;20038;-82
2021/12/11 12:02:06;;;;;;;33.17;13.73;;;2.80;99.90;;;;;;5009317;28;20496;-82
2021/12/11 12:04:32;;;;;;;;;;;2.80;99.90;;;;;;5009874;28;20141;-82
2021/12/11 12:07:01;;;;;;;26.45;10.32;;;2.90;99.90;;;;;;5025448;28;19913;-82
2021/12/11 12:09:29;;;;;;;27.15;11.30;;;2.90;99.90;;;;;;5025511;28;20026;-82
2021/12/11 12:11:58;;;;;;;29.92;11.80;;;2.90;99.90;;;;;;5008695;28;20045;-82
2021/12/11 12:14:27;;;;;;;31.17;13.55;;;2.80;99.90;;;;;;5008895;28;20034;-82
2021/12/11 12:16:53;;;;;;;29.57;11.70;;;2.80;99.90;;;;;;5009208;28;20120;-83
2021/12/11 12:19:21;;;;;;;24.60;11.65;;;2.80;99.90;;;;;;5008943;28;20307;-83
2021/12/11 12:21:51;;;;;;;19.00;7.43;;;2.90;99.90;;;;;;5008908;28;20042;-83
2021/12/11 12:24:21;;;;;;;20.52;9.80;;;2.80;99.90;;;;;;5009074;28;20045;-83
2021/12/11 12:26:47;;;;;;;21.80;11.00;;;2.80;99.90;;;;;;5008780;28;20105;-83
2021/12/11 12:29:14;;;;;;;30.63;14.63;;;2.80;99.90;;;;;;5008042;28;20042;-84
2021/12/11 12:32:08;;;;;;;33.25;15.40;;;2.80;99.90;;;;;;5008696;28;20046;-82
2021/12/11 12:34:35;;;;;;;28.00;12.27;;;2.80;99.90;;;;;;5008849;28;20109;-83
2021/12/11 12:37:03;;;;;;;26.40;12.65;;;2.80;99.90;;;;;;5025668;28;20034;-84
2021/12/11 12:39:38;;;;;;;31.70;15.60;;;2.80;99.90;;;;;;5043905;28;20025;-83
2021/12/11 12:42:19;;;;;;;35.33;17.42;;;2.80;99.90;;;;;;5030512;28;20038;-83
2021/12/11 12:44:56;;;;;;;26.60;11.95;;;2.90;99.90;;;;;;5028380;28;20503;-83
2021/12/11 12:47:29;;;;;;;28.77;13.32;;;3.00;99.90;;;;;;5028381;28;20037;-83
2021/12/11 12:50:00;;;;;;;31.00;13.82;;;3.00;99.90;;;;;;5044932;28;20033;-83
2021/12/11 12:52:39;;;;;;;38.83;13.98;;;2.80;99.90;;;;;;5027989;28;20112;-86
2021/12/11 12:55:18;;;;;;;29.55;13.07;;;2.80;99.90;;;;;;5028216;28;20045;-86
2021/12/11 12:57:49;;;;;;;24.05;8.80;;;2.90;99.90;;;;;;5044176;28;20033;-86
2021/12/11 13:00:50;;;;;;;22.70;10.35;;;2.90;99.90;;;;;;5027976;28;20033;-86
2021/12/11 13:03:24;;;;;;;25.35;9.27;;;2.90;99.90;;;;;;5040544;28;20047;-86
2021/12/11 13:06:06;;;;;;;20.98;10.27;;;2.90;99.90;;;;;;5028036;28;20037;-85
2021/12/11 13:08:49;;;;;;;19.55;9.02;;;3.00;99.90;;;;;;5027993;28;20033;-86
2021/12/11 13:11:20;;;;;;;12.48;4.68;;;3.10;99.90;;;;;;5027758;28;20041;-86
2021/12/11 13:13:48;;;;;;;33.95;10.80;;;3.10;99.90;;;;;;5027765;28;20477;-86
2021/12/11 13:16:18;;;;;;;24.15;11.30;;;3.10;99.90;;;;;;5044300;28;20047;-86